Time;durP1;ratioP1;P1;durP2;ratioP2;P2;SDS_P1;SDS_P2;PMS_P1;PMS_P2;Temp;Humidity;BMP_temperature;BMP_pressure;BME280_temperature;BME280_humidity;BME280_pressure;Samples;Min_cycle;Max_cycle;Signal;HPM_P1;HPM_P2
2023/01/25 00:01:18;;;;;;;93.93;56.05;;;2.00;83.60;;;;;;5068339;28;20120;-72
2023/01/25 00:03:43;;;;;;;94.20;56.67;;;2.00;83.30;;;;;;5057184;28;20029;-72
2023/01/25 00:06:09;;;;;;;88.60;53.92;;;2.00;83.30;;;;;;5039876;28;20032;-71
2023/01/25 00:08:34;;;;;;;88.80;54.45;;;2.00;83.30;;;;;;5060959;28;20029;-71
2023/01/25 00:11:00;;;;;;;92.47;56.33;;;2.00;83.20;;;;;;5059007;28;20028;-71
2023/01/25 00:13:26;;;;;;;88.90;55.30;;;2.00;83.00;;;;;;5061755;28;20492;-73
2023/01/25 00:15:52;;;;;;;93.65;56.88;;;2.00;83.10;;;;;;5058150;28;20029;-72
2023/01/25 00:18:17;;;;;;;89.00;57.53;;;1.90;82.50;;;;;;5058639;28;20028;-71
2023/01/25 00:20:43;;;;;;;89.55;53.75;;;1.90;82.90;;;;;;5045074;28;20356;-73
2023/01/25 00:23:08;;;;;;;87.38;53.65;;;1.90;82.80;;;;;;5059922;28;20046;-71
2023/01/25 00:25:34;;;;;;;87.90;54.85;;;1.80;82.50;;;;;;5054598;28;20041;-72
2023/01/25 00:28:00;;;;;;;94.40;56.08;;;1.80;83.00;;;;;;5063031;28;20060;-72
2023/01/25 00:30:25;;;;;;;93.65;57.80;;;1.70;83.20;;;;;;5061284;28;20107;-72
2023/01/25 00:33:06;;;;;;;89.20;54.47;;;1.60;83.20;;;;;;5074477;28;20082;-73
2023/01/25 00:35:33;;;;;;;89.25;53.70;;;1.60;83.60;;;;;;5067401;28;20032;-72
2023/01/25 00:38:02;;;;;;;93.20;53.97;;;1.60;83.80;;;;;;5071103;28;20025;-71
2023/01/25 00:40:27;;;;;;;91.60;54.33;;;1.60;83.80;;;;;;5070888;28;20027;-71
2023/01/25 00:42:53;;;;;;;94.25;56.97;;;1.50;83.90;;;;;;5074005;28;20037;-73
2023/01/25 00:45:18;;;;;;;91.30;56.05;;;1.60;84.00;;;;;;5070201;28;20059;-71
2023/01/25 00:47:44;;;;;;;97.50;56.47;;;1.50;83.70;;;;;;5067998;28;20055;-73
2023/01/25 00:50:10;;;;;;;94.47;57.55;;;1.50;84.10;;;;;;5068175;28;20059;-72
2023/01/25 00:52:36;;;;;;;92.15;55.17;;;1.60;84.10;;;;;;5061744;28;20040;-72
2023/01/25 00:55:02;;;;;;;89.45;53.88;;;1.50;83.90;;;;;;5060009;28;20024;-71
2023/01/25 00:57:27;;;;;;;93.90;54.45;;;1.60;84.00;;;;;;5061536;28;20090;-71
2023/01/25 00:59:53;;;;;;;93.38;56.20;;;1.60;83.90;;;;;;5064557;28;20050;-72
2023/01/25 01:02:19;;;;;;;96.95;57.70;;;1.60;83.90;;;;;;5067691;28;20039;-72
2023/01/25 01:04:44;;;;;;;92.93;55.20;;;1.50;83.70;;;;;;5062910;28;20542;-71
2023/01/25 01:07:14;;;;;;;95.28;57.83;;;1.40;83.90;;;;;;5064345;28;20028;-72
2023/01/25 01:09:39;;;;;;;91.70;52.47;;;1.40;84.30;;;;;;5062826;28;20021;-73
2023/01/25 01:12:05;;;;;;;94.63;55.13;;;1.20;84.40;;;;;;5055914;28;20106;-74
2023/01/25 01:14:31;;;;;;;89.90;53.78;;;1.30;84.50;;;;;;5042134;28;20131;-72
2023/01/25 01:16:56;;;;;;;97.47;57.08;;;1.40;84.50;;;;;;5057186;28;20028;-72
2023/01/25 01:19:22;;;;;;;92.65;53.42;;;1.50;84.50;;;;;;5058916;28;20028;-73
2023/01/25 01:21:48;;;;;;;93.32;56.08;;;1.60;84.60;;;;;;5055660;28;20455;-73
2023/01/25 01:24:13;;;;;;;93.63;56.30;;;1.70;84.40;;;;;;5059532;28;20098;-71
2023/01/25 01:26:39;;;;;;;96.93;57.15;;;1.70;84.10;;;;;;5060309;28;20094;-71
2023/01/25 01:29:05;;;;;;;93.55;56.00;;;1.70;84.00;;;;;;5059969;28;20052;-71
2023/01/25 01:31:31;;;;;;;91.82;53.75;;;1.70;83.90;;;;;;5041308;28;20035;-71
2023/01/25 01:33:57;;;;;;;93.75;55.55;;;1.70;84.00;;;;;;5062582;28;20067;-71
2023/01/25 01:36:25;;;;;;;85.97;51.97;;;1.70;84.00;;;;;;5044370;28;20131;-72
2023/01/25 01:38:51;;;;;;;94.80;56.05;;;1.80;84.00;;;;;;5062169;28;20035;-72
2023/01/25 01:41:18;;;;;;;94.57;56.08;;;1.80;83.80;;;;;;5061640;28;20032;-73
2023/01/25 01:43:44;;;;;;;98.40;57.65;;;1.80;83.80;;;;;;5065134;28;20060;-73
2023/01/25 01:46:17;;;;;;;94.53;56.28;;;1.80;83.70;;;;;;5065849;28;20104;-72
2023/01/25 01:48:45;;;;;;;96.70;57.08;;;1.80;83.80;;;;;;5059965;28;20032;-72
2023/01/25 01:51:20;;;;;;;91.55;54.15;;;1.90;83.70;;;;;;5063857;28;20189;-73
2023/01/25 01:53:54;;;;;;;92.65;54.67;;;1.80;83.40;;;;;;5057375;28;20111;-72
2023/01/25 01:56:34;;;;;;;96.88;56.28;;;1.80;83.20;;;;;;5055313;28;20060;-72
2023/01/25 01:59:03;;;;;;;91.47;53.17;;;1.70;83.20;;;;;;5061934;28;20089;-71
2023/01/25 02:01:30;;;;;;;93.55;56.03;;;1.70;83.20;;;;;;5059814;28;20037;-73
2023/01/25 02:03:56;;;;;;;98.20;58.20;;;1.70;83.10;;;;;;5062263;28;20036;-71
2023/01/25 02:06:24;;;;;;;92.20;55.30;;;1.60;83.30;;;;;;5064592;28;20109;-72
2023/01/25 02:08:52;;;;;;;92.72;52.78;;;1.60;83.40;;;;;;5060030;28;20455;-72
2023/01/25 02:11:19;;;;;;;93.82;55.72;;;1.70;83.70;;;;;;5059346;28;20024;-72
2023/01/25 02:13:45;;;;;;;96.05;56.08;;;1.70;83.70;;;;;;5060524;28;20039;-74
2023/01/25 02:16:16;;;;;;;93.82;55.53;;;1.80;83.70;;;;;;5060324;28;20040;-72
2023/01/25 02:18:42;;;;;;;92.68;54.70;;;1.70;83.80;;;;;;5062733;28;20040;-73
2023/01/25 02:21:08;;;;;;;94.22;55.13;;;1.80;83.80;;;;;;5055151;28;20025;-72
2023/01/25 02:23:47;;;;;;;97.50;56.33;;;1.80;83.80;;;;;;5059653;28;20032;-72
2023/01/25 02:26:14;;;;;;;95.45;55.95;;;1.80;83.70;;;;;;5052318;28;20048;-72
2023/01/25 02:28:47;;;;;;;95.18;55.90;;;1.80;83.60;;;;;;5059107;28;20405;-72
2023/01/25 02:31:13;;;;;;;94.15;55.80;;;1.80;83.50;;;;;;5059916;28;20036;-74
2023/01/25 02:33:38;;;;;;;95.63;56.65;;;1.80;83.50;;;;;;5059669;28;20038;-72
2023/01/25 02:36:07;;;;;;;97.93;55.55;;;1.80;83.60;;;;;;5063700;28;20064;-72
2023/01/25 02:38:36;;;;;;;87.18;51.67;;;1.80;83.40;;;;;;5060475;28;20028;-72
2023/01/25 02:41:08;;;;;;;94.85;55.67;;;1.70;83.30;;;;;;5064013;28;20584;-73
2023/01/25 02:43:34;;;;;;;91.55;54.35;;;1.70;83.30;;;;;;5054487;28;20029;-71
2023/01/25 02:46:24;;;;;;;95.93;58.38;;;1.70;83.40;;;;;;5040215;28;20040;-72
2023/01/25 02:48:50;;;;;;;94.53;56.20;;;1.70;83.30;;;;;;5059156;28;20098;-71
2023/01/25 02:51:16;;;;;;;94.15;54.97;;;1.70;83.40;;;;;;5062262;28;20082;-73
2023/01/25 02:53:41;;;;;;;92.85;55.03;;;1.80;83.10;;;;;;5066263;28;20031;-71
2023/01/25 02:56:08;;;;;;;95.32;54.97;;;1.70;82.90;;;;;;5065848;28;20032;-71
2023/01/25 02:58:33;;;;;;;91.53;54.55;;;1.70;83.10;;;;;;5056489;28;20032;-72
2023/01/25 03:00:59;;;;;;;96.80;56.28;;;1.70;83.10;;;;;;5054231;28;20035;-71
2023/01/25 03:03:25;;;;;;;98.97;56.92;;;1.70;83.20;;;;;;5058072;28;20041;-73
2023/01/25 03:05:50;;;;;;;92.00;56.40;;;1.70;83.20;;;;;;5061768;28;20029;-71
2023/01/25 03:08:16;;;;;;;92.50;54.55;;;1.70;83.30;;;;;;5062050;28;20136;-71
2023/01/25 03:10:42;;;;;;;89.35;53.85;;;1.60;83.00;;;;;;5045182;28;20036;-73
2023/01/25 03:13:07;;;;;;;93.25;56.30;;;1.70;82.80;;;;;;5055854;28;20025;-73
2023/01/25 03:15:33;;;;;;;89.35;52.08;;;1.60;82.90;;;;;;5062736;28;20441;-72
2023/01/25 03:17:59;;;;;;;91.55;54.20;;;1.60;83.00;;;;;;5067147;28;20028;-73
2023/01/25 03:20:24;;;;;;;91.05;53.95;;;1.60;83.00;;;;;;5062767;28;20880;-72
2023/01/25 03:22:50;;;;;;;95.95;54.50;;;1.60;83.00;;;;;;5059496;28;20068;-73
2023/01/25 03:25:16;;;;;;;91.07;53.60;;;1.50;83.10;;;;;;5065257;28;20039;-73
2023/01/25 03:27:41;;;;;;;93.40;54.47;;;1.60;83.00;;;;;;5066470;28;20039;-72
2023/01/25 03:30:08;;;;;;;88.03;52.65;;;1.40;82.60;;;;;;5064000;28;20023;-74
2023/01/25 03:32:34;;;;;;;93.45;54.17;;;1.40;82.80;;;;;;5062463;28;20413;-72
2023/01/25 03:35:00;;;;;;;96.53;56.03;;;1.30;83.10;;;;;;5055616;28;20529;-72
2023/01/25 03:37:28;;;;;;;94.95;54.33;;;1.20;83.00;;;;;;5057252;28;20044;-72
2023/01/25 03:39:55;;;;;;;92.93;52.03;;;1.10;83.60;;;;;;5059247;28;20032;-72
2023/01/25 03:42:21;;;;;;;93.78;54.15;;;1.10;83.80;;;;;;5059249;28;20114;-73
2023/01/25 03:44:47;;;;;;;94.32;53.88;;;1.10;83.80;;;;;;5059928;28;20516;-72
2023/01/25 03:47:12;;;;;;;99.07;57.05;;;1.10;83.80;;;;;;5059967;28;20086;-71
2023/01/25 03:49:38;;;;;;;98.45;56.22;;;1.20;84.00;;;;;;5069625;28;20063;-73
2023/01/25 03:52:04;;;;;;;100.88;56.00;;;1.20;84.00;;;;;;5063347;28;20622;-73
2023/01/25 03:54:30;;;;;;;102.53;57.88;;;1.20;83.90;;;;;;5059632;28;20043;-72
2023/01/25 03:56:55;;;;;;;100.10;56.22;;;1.30;83.90;;;;;;5053636;28;20036;-73
2023/01/25 03:59:21;;;;;;;95.90;54.88;;;1.40;83.80;;;;;;5060111;28;20016;-73
2023/01/25 04:01:47;;;;;;;95.88;54.22;;;1.40;83.70;;;;;;5058816;28;20654;-72
2023/01/25 04:04:12;;;;;;;96.50;56.58;;;1.40;83.70;;;;;;5059199;28;20036;-72
2023/01/25 04:06:38;;;;;;;102.35;56.97;;;1.50;83.70;;;;;;5064677;28;20059;-71
2023/01/25 04:09:05;;;;;;;98.47;56.55;;;1.40;83.60;;;;;;5063718;28;20469;-72
2023/01/25 04:11:30;;;;;;;100.57;55.65;;;1.50;83.70;;;;;;5068244;28;20029;-71
2023/01/25 04:13:56;;;;;;;103.68;57.80;;;1.50;83.70;;;;;;5068243;28;20039;-71
2023/01/25 04:16:22;;;;;;;105.78;59.45;;;1.30;83.30;;;;;;5063092;28;20039;-72
2023/01/25 04:18:47;;;;;;;109.40;58.00;;;1.20;84.10;;;;;;5063417;28;20025;-71
2023/01/25 04:21:13;;;;;;;110.93;59.63;;;1.10;84.30;;;;;;5065611;28;20040;-72
2023/01/25 04:23:39;;;;;;;102.63;55.92;;;1.20;84.50;;;;;;5062342;28;20051;-72
2023/01/25 04:26:07;;;;;;;107.45;59.10;;;1.20;84.40;;;;;;5068146;28;20452;-71
2023/01/25 04:28:34;;;;;;;106.32;59.00;;;1.30;84.40;;;;;;5066994;28;20028;-73
2023/01/25 04:31:02;;;;;;;98.20;56.30;;;1.30;84.40;;;;;;5072027;28;20029;-73
2023/01/25 04:33:28;;;;;;;107.65;59.13;;;1.40;84.40;;;;;;5063047;28;20762;-72
2023/01/25 04:35:54;;;;;;;103.85;57.38;;;1.50;84.40;;;;;;5060323;28;20499;-76
2023/01/25 04:38:20;;;;;;;98.03;55.45;;;1.50;84.30;;;;;;5061349;28;20723;-73
2023/01/25 04:40:46;;;;;;;101.65;56.58;;;1.50;84.30;;;;;;5062244;28;20480;-74
2023/01/25 04:43:15;;;;;;;108.25;59.63;;;1.50;84.20;;;;;;5062326;28;20025;-72
2023/01/25 04:45:41;;;;;;;102.15;57.25;;;1.50;84.10;;;;;;5058283;28;20067;-71
2023/01/25 04:48:09;;;;;;;101.32;56.70;;;1.60;84.20;;;;;;5062450;28;20028;-72
2023/01/25 04:50:36;;;;;;;99.40;57.60;;;1.50;83.90;;;;;;5064109;28;20162;-74
2023/01/25 04:53:01;;;;;;;99.45;58.28;;;1.50;83.90;;;;;;5074457;28;20330;-73
2023/01/25 04:55:27;;;;;;;103.05;56.25;;;1.50;83.90;;;;;;5062371;28;20037;-72
2023/01/25 04:57:53;;;;;;;102.40;58.08;;;1.50;83.90;;;;;;5059135;28;20358;-73
2023/01/25 05:00:19;;;;;;;102.78;57.67;;;1.50;83.80;;;;;;5060335;28;20035;-72
2023/01/25 05:02:45;;;;;;;100.47;56.35;;;1.40;83.60;;;;;;5058446;28;20037;-74
2023/01/25 05:05:11;;;;;;;98.65;55.70;;;1.40;83.50;;;;;;5057502;28;20035;-72
2023/01/25 05:07:36;;;;;;;96.70;53.95;;;1.40;83.70;;;;;;5058588;28;20049;-72
2023/01/25 05:10:02;;;;;;;97.90;55.10;;;1.40;83.70;;;;;;5060649;28;20044;-74
2023/01/25 05:12:28;;;;;;;103.00;58.38;;;1.40;83.80;;;;;;5052767;28;20451;-72
2023/01/25 05:14:54;;;;;;;110.65;59.60;;;1.40;83.50;;;;;;5057895;28;20513;-72
2023/01/25 05:17:20;;;;;;;104.05;57.58;;;1.10;83.10;;;;;;5059799;28;20024;-72
2023/01/25 05:19:46;;;;;;;105.63;56.78;;;1.10;83.60;;;;;;5061246;28;20035;-72
2023/01/25 05:22:16;;;;;;;102.75;54.95;;;1.10;84.00;;;;;;5061969;28;20127;-72
2023/01/25 05:24:43;;;;;;;103.13;57.50;;;1.00;84.10;;;;;;5060503;28;20043;-72
2023/01/25 05:27:10;;;;;;;101.90;55.80;;;1.00;84.30;;;;;;5043614;28;20625;-72
2023/01/25 05:29:38;;;;;;;101.50;54.83;;;0.90;84.50;;;;;;5055746;28;20033;-71
2023/01/25 05:32:13;;;;;;;103.22;57.00;;;1.00;84.60;;;;;;5061317;28;20044;-71
2023/01/25 05:34:39;;;;;;;;;;;1.00;84.60;;;;;;5062414;28;20024;-72
2023/01/25 05:37:06;;;;;;;100.53;54.17;;;1.10;84.50;;;;;;5060251;28;20478;-71
2023/01/25 05:39:32;;;;;;;103.88;56.22;;;1.10;84.40;;;;;;5061047;28;20035;-73
2023/01/25 05:41:57;;;;;;;106.47;57.78;;;1.10;84.20;;;;;;5051370;28;20045;-73
2023/01/25 05:44:24;;;;;;;102.07;53.83;;;1.10;84.10;;;;;;5050287;28;20021;-72
2023/01/25 05:46:50;;;;;;;109.15;59.10;;;1.10;84.30;;;;;;5050293;28;20041;-71
2023/01/25 05:49:15;;;;;;;99.68;56.03;;;1.10;84.50;;;;;;5052724;28;20593;-73
2023/01/25 05:51:41;;;;;;;107.32;59.22;;;1.10;84.60;;;;;;5052253;28;20043;-73
2023/01/25 05:54:11;;;;;;;105.18;58.13;;;1.20;84.50;;;;;;5054505;28;20032;-71
2023/01/25 05:56:37;;;;;;;108.65;58.05;;;1.20;84.50;;;;;;5053354;28;20060;-71
2023/01/25 05:59:03;;;;;;;104.60;59.03;;;1.20;84.20;;;;;;5057355;28;20044;-73
2023/01/25 06:01:29;;;;;;;104.20;55.33;;;1.20;84.10;;;;;;5052131;28;20127;-71
2023/01/25 06:03:54;;;;;;;108.07;57.95;;;1.20;84.40;;;;;;5042174;28;20029;-72
2023/01/25 06:06:20;;;;;;;100.60;56.45;;;1.10;84.10;;;;;;5054723;28;20032;-72
2023/01/25 06:08:46;;;;;;;106.38;58.30;;;1.10;84.10;;;;;;5057836;28;20060;-71
2023/01/25 06:11:18;;;;;;;102.57;55.20;;;1.10;83.90;;;;;;5055358;28;20040;-70
2023/01/25 06:13:44;;;;;;;99.18;55.80;;;1.10;83.90;;;;;;5052208;28;20067;-72
2023/01/25 06:16:10;;;;;;;107.70;57.17;;;1.10;84.00;;;;;;5045005;28;20032;-72
2023/01/25 06:18:36;;;;;;;107.07;58.35;;;1.10;84.10;;;;;;5056098;28;20036;-71
2023/01/25 06:21:03;;;;;;;108.97;57.47;;;1.10;84.10;;;;;;5038606;28;20123;-70
2023/01/25 06:23:29;;;;;;;108.57;58.40;;;1.10;84.10;;;;;;5053675;28;20057;-70
2023/01/25 06:26:00;;;;;;;107.13;58.10;;;1.10;84.30;;;;;;5060332;28;20048;-73
2023/01/25 06:28:28;;;;;;;102.40;55.58;;;0.90;84.10;;;;;;5053874;28;20138;-73
2023/01/25 06:30:54;;;;;;;106.60;56.55;;;0.90;84.40;;;;;;5051744;28;20032;-71
2023/01/25 06:33:19;;;;;;;110.10;57.13;;;0.80;84.50;;;;;;5044586;28;20103;-71
2023/01/25 06:35:45;;;;;;;109.78;59.70;;;0.70;84.70;;;;;;5058764;28;20136;-73
2023/01/25 06:38:11;;;;;;;107.97;57.03;;;0.70;85.00;;;;;;5061102;28;20131;-72
2023/01/25 06:40:36;;;;;;;111.75;58.75;;;0.70;85.30;;;;;;5059255;28;20499;-72
2023/01/25 06:43:11;;;;;;;106.90;56.40;;;0.80;85.20;;;;;;5059801;28;20032;-71
2023/01/25 06:45:37;;;;;;;110.57;59.00;;;0.80;85.00;;;;;;5059926;28;20040;-71
2023/01/25 06:48:03;;;;;;;105.97;57.75;;;0.90;85.00;;;;;;5059877;28;20447;-72
2023/01/25 06:50:29;;;;;;;111.93;57.47;;;0.90;84.70;;;;;;5040933;28;20531;-72
2023/01/25 06:52:55;;;;;;;108.88;59.28;;;0.90;84.60;;;;;;5060563;28;20021;-71
2023/01/25 06:55:21;;;;;;;111.00;60.63;;;0.90;84.70;;;;;;5060054;28;20107;-71
2023/01/25 06:57:47;;;;;;;108.53;58.45;;;1.00;84.60;;;;;;5057745;28;20471;-72
2023/01/25 07:00:14;;;;;;;111.25;62.20;;;1.00;84.60;;;;;;5052346;28;20035;-72
2023/01/25 07:02:40;;;;;;;103.15;54.70;;;1.00;84.50;;;;;;5058868;28;20028;-73
2023/01/25 07:05:06;;;;;;;104.38;56.35;;;0.90;84.50;;;;;;5061046;28;20085;-71
2023/01/25 07:07:32;;;;;;;110.38;56.90;;;0.90;84.50;;;;;;5050171;28;20032;-71
2023/01/25 07:09:59;;;;;;;107.85;57.70;;;0.90;84.40;;;;;;5064227;28;20487;-72
2023/01/25 07:12:25;;;;;;;108.10;59.10;;;0.90;84.50;;;;;;5057009;28;20047;-71
2023/01/25 07:14:50;;;;;;;114.28;62.38;;;0.90;84.30;;;;;;5061404;28;20028;-72
2023/01/25 07:17:17;;;;;;;110.75;57.20;;;0.80;84.30;;;;;;5059192;28;20123;-71
2023/01/25 07:19:42;;;;;;;105.15;56.72;;;0.80;84.30;;;;;;5067725;28;20042;-72
2023/01/25 07:22:08;;;;;;;112.80;60.05;;;0.70;84.60;;;;;;5033230;28;21336;-73
2023/01/25 07:24:34;;;;;;;110.80;56.85;;;0.80;84.80;;;;;;5051490;28;20654;-73
2023/01/25 07:26:59;;;;;;;112.82;58.15;;;0.80;84.70;;;;;;5053666;28;20089;-72
2023/01/25 07:29:25;;;;;;;115.97;60.00;;;0.80;84.80;;;;;;5053327;28;20029;-72
2023/01/25 07:31:50;;;;;;;108.05;59.15;;;0.80;84.80;;;;;;5054530;28;20131;-72
2023/01/25 07:34:16;;;;;;;113.25;60.53;;;0.80;84.90;;;;;;5052227;28;20618;-74
2023/01/25 07:36:45;;;;;;;114.15;59.03;;;0.90;84.90;;;;;;5035128;28;20040;-74
2023/01/25 07:39:11;;;;;;;107.93;55.78;;;0.90;85.00;;;;;;5054431;28;20115;-72
2023/01/25 07:41:37;;;;;;;107.93;56.63;;;0.90;84.90;;;;;;5052960;28;20152;-73
2023/01/25 07:44:03;;;;;;;111.20;57.45;;;1.00;84.80;;;;;;5067747;28;20042;-73
2023/01/25 07:46:29;;;;;;;106.82;56.65;;;0.90;84.70;;;;;;5061430;28;20041;-71
2023/01/25 07:48:57;;;;;;;107.85;57.25;;;0.90;84.80;;;;;;5044170;28;20039;-73
2023/01/25 07:51:26;;;;;;;113.38;58.17;;;0.90;84.90;;;;;;5056148;28;20029;-71
2023/01/25 07:54:02;;;;;;;108.53;54.53;;;1.00;85.00;;;;;;5054934;28;20070;-71
2023/01/25 07:56:30;;;;;;;105.80;55.15;;;1.00;84.90;;;;;;5050335;28;20040;-71
2023/01/25 07:58:57;;;;;;;109.38;58.50;;;1.00;84.70;;;;;;5058414;28;20062;-73
2023/01/25 08:01:25;;;;;;;110.55;58.97;;;1.00;84.70;;;;;;5056860;28;20067;-71
2023/01/25 08:03:52;;;;;;;103.05;56.63;;;1.00;84.90;;;;;;5054159;28;20032;-71
2023/01/25 08:06:26;;;;;;;109.63;59.28;;;1.00;84.50;;;;;;5051863;28;20039;-72
2023/01/25 08:08:52;;;;;;;107.18;57.65;;;1.10;84.50;;;;;;5055672;28;20037;-71
2023/01/25 08:11:21;;;;;;;109.28;56.47;;;1.10;84.20;;;;;;5052116;28;20526;-71
2023/01/25 08:13:48;;;;;;;108.50;58.38;;;1.10;84.20;;;;;;5055338;28;20071;-73
2023/01/25 08:16:16;;;;;;;114.97;59.00;;;1.00;83.80;;;;;;5053983;28;20040;-72
2023/01/25 08:18:42;;;;;;;110.25;56.63;;;1.00;84.10;;;;;;5053101;28;20039;-72
2023/01/25 08:21:08;;;;;;;109.40;57.53;;;0.90;84.00;;;;;;5048673;28;20087;-75
2023/01/25 08:23:35;;;;;;;111.30;58.20;;;1.00;84.20;;;;;;5060909;28;20053;-76
2023/01/25 08:26:12;;;;;;;112.00;60.22;;;1.00;84.10;;;;;;5064502;28;20123;-75
2023/01/25 08:28:38;;;;;;;114.22;59.55;;;1.00;84.10;;;;;;5054521;28;20611;-75
2023/01/25 08:31:07;;;;;;;113.20;59.35;;;0.90;83.80;;;;;;5065732;28;20076;-77
2023/01/25 08:33:34;;;;;;;115.78;58.88;;;0.90;84.00;;;;;;5052931;28;20063;-79
2023/01/25 08:36:00;;;;;;;112.53;58.33;;;1.00;84.00;;;;;;5061527;28;20085;-75
2023/01/25 08:38:26;;;;;;;114.88;59.60;;;1.00;84.30;;;;;;5059729;28;20032;-77
2023/01/25 08:40:52;;;;;;;112.00;60.40;;;1.00;84.20;;;;;;5061387;28;20036;-76
2023/01/25 08:45:56;;;;;;;113.43;57.20;;;1.00;84.30;;;;;;5558761;22;20277;-86
2023/01/25 08:48:22;;;;;;;117.28;59.83;;;1.00;84.20;;;;;;5059483;28;20009;-88
2023/01/25 08:50:48;;;;;;;119.15;60.72;;;1.00;84.20;;;;;;5049526;28;20092;-82
2023/01/25 08:53:14;;;;;;;112.38;58.88;;;1.00;84.30;;;;;;5045176;28;20418;-87
2023/01/25 08:55:41;;;;;;;111.97;58.08;;;0.90;84.30;;;;;;5047361;28;20036;-88
2023/01/25 08:58:12;;;;;;;109.80;56.03;;;0.90;84.30;;;;;;5061472;28;20066;-85
2023/01/25 09:00:39;;;;;;;118.47;60.92;;;0.80;84.50;;;;;;5045606;28;20504;-84
2023/01/25 09:03:05;;;;;;;114.82;57.42;;;0.80;84.60;;;;;;5041173;28;20328;-86
2023/01/25 09:05:34;;;;;;;114.35;56.58;;;0.80;84.70;;;;;;5041633;28;20040;-84
2023/01/25 09:08:01;;;;;;;113.82;56.92;;;0.80;84.50;;;;;;5047091;28;20024;-85
2023/01/25 09:10:27;;;;;;;117.22;57.60;;;0.80;84.50;;;;;;5049853;28;20539;-84
2023/01/25 09:12:53;;;;;;;111.50;57.50;;;0.80;84.50;;;;;;5056108;28;20408;-84
2023/01/25 09:15:19;;;;;;;118.50;57.03;;;0.90;84.50;;;;;;5078076;28;20016;-84
2023/01/25 09:17:44;;;;;;;106.28;54.55;;;0.80;84.50;;;;;;5053986;28;20033;-85
2023/01/25 09:20:10;;;;;;;110.72;58.47;;;0.90;84.40;;;;;;5047403;28;20565;-82
2023/01/25 09:22:37;;;;;;;113.65;56.25;;;0.90;84.50;;;;;;5062942;28;20455;-85
2023/01/25 09:25:03;;;;;;;123.28;61.25;;;0.90;84.30;;;;;;5048202;28;20115;-83
2023/01/25 09:27:29;;;;;;;120.75;61.90;;;1.00;84.20;;;;;;5049309;28;20152;-83
2023/01/25 09:29:55;;;;;;;113.57;59.88;;;1.00;84.10;;;;;;5069529;28;20399;-85
2023/01/25 09:32:20;;;;;;;119.28;59.92;;;1.00;84.00;;;;;;5067095;28;20497;-84
2023/01/25 09:34:46;;;;;;;116.05;58.95;;;1.00;84.00;;;;;;5047703;28;20028;-86
2023/01/25 09:37:12;;;;;;;118.68;61.67;;;1.00;83.80;;;;;;5059384;28;20046;-84
2023/01/25 09:39:38;;;;;;;116.07;59.20;;;1.00;84.00;;;;;;5064211;28;20031;-86
2023/01/25 09:42:09;;;;;;;115.70;58.33;;;1.00;83.90;;;;;;5048844;28;20056;-86
2023/01/25 09:44:44;;;;;;;120.72;59.90;;;0.90;83.40;;;;;;5053724;28;20383;-85
2023/01/25 09:47:28;;;;;;;;;;;1.00;83.60;;;;;;5047022;28;20056;-83
2023/01/25 09:50:18;;;;;;;115.35;57.00;;;1.00;83.80;;;;;;5045959;28;20442;-86
2023/01/25 09:53:23;;;;;;;117.30;58.00;;;1.00;83.70;;;;;;5045631;28;20511;-84
2023/01/25 09:55:57;;;;;;;119.55;57.88;;;1.00;83.90;;;;;;5030744;28;20047;-85
2023/01/25 09:58:45;;;;;;;119.40;57.45;;;0.90;83.80;;;;;;5034990;28;20056;-88
2023/01/25 10:01:43;;;;;;;118.75;60.17;;;1.00;84.00;;;;;;5053830;28;21153;-84
2023/01/25 10:04:25;;;;;;;121.38;58.13;;;1.10;83.90;;;;;;5006179;28;20049;-86
2023/01/25 10:07:00;;;;;;;127.10;59.55;;;1.10;83.90;;;;;;5048976;28;20043;-85
2023/01/25 10:09:50;;;;;;;116.35;58.05;;;1.10;84.20;;;;;;5045827;28;20032;-84
2023/01/25 10:12:25;;;;;;;124.82;62.65;;;1.10;84.20;;;;;;5028143;28;20037;-83
2023/01/25 10:14:51;;;;;;;114.53;60.00;;;1.10;83.90;;;;;;5029108;28;20040;-83
2023/01/25 10:17:25;;;;;;;120.50;61.25;;;1.10;83.80;;;;;;5043621;28;20041;-87
2023/01/25 10:20:25;;;;;;;126.78;63.38;;;1.00;84.10;;;;;;5032266;28;20021;-84
2023/01/25 10:23:18;;;;;;;126.25;61.28;;;1.10;84.40;;;;;;5035946;28;20583;-82
2023/01/25 10:25:50;;;;;;;119.00;60.70;;;1.10;84.30;;;;;;5029345;28;20123;-86
2023/01/25 10:28:38;;;;;;;125.32;62.03;;;1.10;84.20;;;;;;5032856;28;20476;-83
2023/01/25 10:31:15;;;;;;;127.43;63.45;;;1.10;84.00;;;;;;5044236;28;20394;-85
2023/01/25 10:33:44;;;;;;;126.32;63.45;;;1.10;83.80;;;;;;5028687;28;20024;-83
2023/01/25 10:36:22;;;;;;;124.82;62.40;;;1.00;83.80;;;;;;5039983;28;20697;-86
2023/01/25 10:38:48;;;;;;;118.72;58.88;;;1.00;83.90;;;;;;5025726;28;20028;-86
2023/01/25 10:41:25;;;;;;;124.43;57.72;;;0.90;83.90;;;;;;5024071;28;20036;-83
2023/01/25 10:44:20;;;;;;;125.53;65.20;;;1.00;84.20;;;;;;5029642;28;20021;-83
2023/01/25 10:46:39;;;;;;;154.18;78.32;;;1.00;83.90;;;;;;5044241;28;20048;-83
2023/01/25 10:49:28;;;;;;;122.60;61.28;;;1.10;84.20;;;;;;5043765;28;20044;-85
2023/01/25 10:51:54;;;;;;;119.40;62.05;;;1.10;83.90;;;;;;5042924;28;20044;-83
2023/01/25 10:54:21;;;;;;;125.93;65.30;;;1.10;83.80;;;;;;5043601;28;20021;-84
2023/01/25 10:56:48;;;;;;;127.25;64.07;;;1.10;83.90;;;;;;5041863;28;20393;-84
2023/01/25 10:59:23;;;;;;;127.80;61.08;;;1.10;83.90;;;;;;5022932;28;20495;-84
2023/01/25 11:01:49;;;;;;;115.97;58.28;;;1.20;84.00;;;;;;5017685;28;20030;-84
2023/01/25 11:04:29;;;;;;;125.63;63.78;;;1.20;83.90;;;;;;5038711;28;20451;-83
2023/01/25 11:06:55;;;;;;;122.15;61.75;;;1.20;83.60;;;;;;5045517;28;20029;-86
2023/01/25 11:09:20;;;;;;;123.32;63.15;;;1.30;83.40;;;;;;5028064;28;20542;-85
2023/01/25 11:12:19;;;;;;;123.78;63.38;;;1.20;83.50;;;;;;5045339;28;20277;-84
2023/01/25 11:14:48;;;;;;;127.43;60.80;;;1.20;83.70;;;;;;5024263;28;20025;-84
2023/01/25 11:17:25;;;;;;;126.38;61.92;;;1.20;83.70;;;;;;5042233;28;20040;-86
2023/01/25 11:20:10;;;;;;;127.38;61.72;;;1.30;83.50;;;;;;5043229;28;20325;-83
2023/01/25 11:22:36;;;;;;;119.05;60.78;;;1.30;83.20;;;;;;5027851;28;20503;-84
2023/01/25 11:25:32;;;;;;;132.40;68.20;;;1.30;83.20;;;;;;5032340;28;20509;-82
2023/01/25 11:28:13;;;;;;;124.65;62.40;;;1.30;83.30;;;;;;5033663;28;20125;-82
2023/01/25 11:30:38;;;;;;;119.30;61.25;;;1.40;82.80;;;;;;5032172;28;20124;-85
2023/01/25 11:33:12;;;;;;;122.95;63.33;;;1.40;83.00;;;;;;5023453;28;20113;-85
2023/01/25 11:35:59;;;;;;;116.85;60.05;;;1.40;82.40;;;;;;5036842;28;20029;-83
2023/01/25 11:38:24;;;;;;;114.82;57.03;;;1.50;82.70;;;;;;5016129;28;20195;-85
2023/01/25 11:41:05;;;;;;;116.75;62.55;;;1.50;82.30;;;;;;5027496;28;20048;-83
2023/01/25 11:43:56;;;;;;;136.48;74.75;;;1.60;82.00;;;;;;5016748;28;20029;-86
2023/01/25 11:46:28;;;;;;;117.95;59.47;;;1.60;81.70;;;;;;4972427;28;1276061;-84
2023/01/25 11:49:05;;;;;;;119.75;58.63;;;1.60;81.10;;;;;;5021974;28;20040;-82
2023/01/25 11:51:41;;;;;;;128.45;72.03;;;1.70;81.10;;;;;;5029188;28;20029;-85
2023/01/25 11:54:32;;;;;;;130.98;69.80;;;1.60;80.30;;;;;;5016552;28;20037;-86
2023/01/25 11:56:59;;;;;;;121.88;60.45;;;1.60;80.70;;;;;;5033117;28;20029;-85
2023/01/25 11:59:53;;;;;;;116.65;59.25;;;1.60;80.50;;;;;;5023017;28;20097;-87
2023/01/25 12:02:45;;;;;;;122.17;59.37;;;1.50;80.60;;;;;;5019067;28;20417;-85
2023/01/25 12:05:42;;;;;;;113.70;57.40;;;1.60;80.80;;;;;;5031547;28;20469;-86
2023/01/25 12:08:13;;;;;;;112.38;56.85;;;1.60;80.80;;;;;;5020092;28;20215;-83
2023/01/25 12:11:00;;;;;;;115.63;57.67;;;1.70;80.80;;;;;;5013996;28;20025;-84
2023/01/25 12:14:12;;;;;;;114.93;59.58;;;1.70;80.60;;;;;;5033269;28;20028;-84
2023/01/25 12:17:17;;;;;;;112.28;57.17;;;1.70;80.50;;;;;;5035052;28;20084;-84
2023/01/25 12:19:59;;;;;;;121.15;58.60;;;1.70;80.80;;;;;;5019674;28;20037;-85
2023/01/25 12:22:34;;;;;;;117.20;60.00;;;1.70;80.80;;;;;;5016655;28;21184;-87
2023/01/25 12:25:15;;;;;;;126.50;62.35;;;1.70;81.00;;;;;;5036225;28;20442;-84
2023/01/25 12:27:47;;;;;;;116.30;57.88;;;1.70;80.20;;;;;;5041853;28;20041;-84
2023/01/25 12:30:41;;;;;;;113.65;56.80;;;1.70;80.40;;;;;;5051803;28;20100;-83
2023/01/25 12:33:45;;;;;;;121.55;59.40;;;1.70;80.20;;;;;;5028438;28;20116;-87
2023/01/25 12:36:17;;;;;;;119.05;61.83;;;1.70;80.00;;;;;;5042118;28;20095;-83
2023/01/25 12:39:03;;;;;;;119.22;59.72;;;1.70;80.20;;;;;;5043207;28;20048;-83
2023/01/25 12:41:50;;;;;;;122.63;61.55;;;1.80;80.20;;;;;;5030134;28;20383;-87
2023/01/25 12:44:37;;;;;;;123.03;59.90;;;1.80;79.90;;;;;;5037842;28;20036;-86
2023/01/25 12:47:09;;;;;;;116.82;60.08;;;1.70;80.00;;;;;;5024917;28;20064;-84